sensor_id;sensor_type;location;lat;lon;timestamp;P1;P2;P0
51052;PMS5003;37093;37.716;-122.060;2022-08-19T00:01:57;15;15;
51052;PMS5003;37093;37.716;-122.060;2022-08-19T00:04:26;12;12;
51052;PMS5003;37093;37.716;-122.060;2022-08-19T00:06:56;13;12;
51052;PMS5003;37093;37.716;-122.060;2022-08-19T00:09:25;20;15;
51052;PMS5003;37093;37.716;-122.060;2022-08-19T00:11:55;16;12;
51052;PMS5003;37093;37.716;-122.060;2022-08-19T00:14:25;18;12;
51052;PMS5003;37093;37.716;-122.060;2022-08-19T00:16:55;15;11;
51052;PMS5003;37093;37.716;-122.060;2022-08-19T00:19:24;11;8;
51052;PMS5003;37093;37.716;-122.060;2022-08-19T00:21:53;9;8;
51052;PMS5003;37093;37.716;-122.060;2022-08-19T00:24:22;6;5;
51052;PMS5003;37093;37.716;-122.060;2022-08-19T00:26:50;11;10;
51052;PMS5003;37093;37.716;-122.060;2022-08-19T00:29:25;7;7;
51052;PMS5003;37093;37.716;-122.060;2022-08-19T00:31:53;7;7;
51052;PMS5003;37093;37.716;-122.060;2022-08-19T00:34:22;10;6;
51052;PMS5003;37093;37.716;-122.060;2022-08-19T00:36:51;9;7;
51052;PMS5003;37093;37.716;-122.060;2022-08-19T00:39:20;9;8;
51052;PMS5003;37093;37.716;-122.060;2022-08-19T00:41:49;7;7;
51052;PMS5003;37093;37.716;-122.060;2022-08-19T00:44:19;8;7;
51052;PMS5003;37093;37.716;-122.060;2022-08-19T00:46:50;8;7;
51052;PMS5003;37093;37.716;-122.060;2022-08-19T00:49:20;7;6;
51052;PMS5003;37093;37.716;-122.060;2022-08-19T00:51:53;6;6;
51052;PMS5003;37093;37.716;-122.060;2022-08-19T00:54:25;6;5;
51052;PMS5003;37093;37.716;-122.060;2022-08-19T00:56:53;10;9;
51052;PMS5003;37093;37.716;-122.060;2022-08-19T00:59:22;11;8;
51052;PMS5003;37093;37.716;-122.060;2022-08-19T01:01:51;10;7;
51052;PMS5003;37093;37.716;-122.060;2022-08-19T01:04:20;5;4;
51052;PMS5003;37093;37.716;-122.060;2022-08-19T01:06:49;12;8;
51052;PMS5003;37093;37.716;-122.060;2022-08-19T01:09:17;7;7;
51052;PMS5003;37093;37.716;-122.060;2022-08-19T01:11:46;7;7;
51052;PMS5003;37093;37.716;-122.060;2022-08-19T01:14:14;6;6;
51052;PMS5003;37093;37.716;-122.060;2022-08-19T01:16:43;4;4;
51052;PMS5003;37093;37.716;-122.060;2022-08-19T01:19:15;9;9;
51052;PMS5003;37093;37.716;-122.060;2022-08-19T01:21:55;7;7;
51052;PMS5003;37093;37.716;-122.060;2022-08-19T01:24:27;6;6;
51052;PMS5003;37093;37.716;-122.060;2022-08-19T01:26:56;7;7;
51052;PMS5003;37093;37.716;-122.060;2022-08-19T01:29:25;6;6;
51052;PMS5003;37093;37.716;-122.060;2022-08-19T01:31:54;13;6;
51052;PMS5003;37093;37.716;-122.060;2022-08-19T01:34:23;9;7;
51052;PMS5003;37093;37.716;-122.060;2022-08-19T01:36:51;9;6;
51052;PMS5003;37093;37.716;-122.060;2022-08-19T01:39:20;9;7;
51052;PMS5003;37093;37.716;-122.060;2022-08-19T01:41:51;5;5;
51052;PMS5003;37093;37.716;-122.060;2022-08-19T01:44:19;5;5;
51052;PMS5003;37093;37.716;-122.060;2022-08-19T01:46:48;9;5;
51052;PMS5003;37093;37.716;-122.060;2022-08-19T01:49:20;4;4;
51052;PMS5003;37093;37.716;-122.060;2022-08-19T01:51:51;7;7;
51052;PMS5003;37093;37.716;-122.060;2022-08-19T01:54:20;4;4;
51052;PMS5003;37093;37.716;-122.060;2022-08-19T01:56:50;7;6;
51052;PMS5003;37093;37.716;-122.060;2022-08-19T01:59:22;7;5;
51052;PMS5003;37093;37.716;-122.060;2022-08-19T02:01:51;9;7;
51052;PMS5003;37093;37.716;-122.060;2022-08-19T02:04:20;8;8;
51052;PMS5003;37093;37.716;-122.060;2022-08-19T02:06:48;8;8;
51052;PMS5003;37093;37.716;-122.060;2022-08-19T02:09:17;6;5;
51052;PMS5003;37093;37.716;-122.060;2022-08-19T02:11:45;5;5;
51052;PMS5003;37093;37.716;-122.060;2022-08-19T02:14:14;4;4;
51052;PMS5003;37093;37.716;-122.060;2022-08-19T02:16:43;3;3;
51052;PMS5003;37093;37.716;-122.060;2022-08-19T02:19:11;7;7;
51052;PMS5003;37093;37.716;-122.060;2022-08-19T02:21:39;7;7;
51052;PMS5003;37093;37.716;-122.060;2022-08-19T02:24:09;8;6;
51052;PMS5003;37093;37.716;-122.060;2022-08-19T02:26:38;5;5;
51052;PMS5003;37093;37.716;-122.060;2022-08-19T02:29:07;6;6;
51052;PMS5003;37093;37.716;-122.060;2022-08-19T02:31:35;3;3;
51052;PMS5003;37093;37.716;-122.060;2022-08-19T02:34:03;8;7;
51052;PMS5003;37093;37.716;-122.060;2022-08-19T02:36:32;7;6;
51052;PMS5003;37093;37.716;-122.060;2022-08-19T02:39:01;9;8;
51052;PMS5003;37093;37.716;-122.060;2022-08-19T02:41:30;9;5;
51052;PMS5003;37093;37.716;-122.060;2022-08-19T02:44:01;8;7;
51052;PMS5003;37093;37.716;-122.060;2022-08-19T02:46:31;6;6;
51052;PMS5003;37093;37.716;-122.060;2022-08-19T02:49:01;6;6;
51052;PMS5003;37093;37.716;-122.060;2022-08-19T02:51:34;9;9;
51052;PMS5003;37093;37.716;-122.060;2022-08-19T02:54:05;9;6;
51052;PMS5003;37093;37.716;-122.060;2022-08-19T02:56:35;9;8;
51052;PMS5003;37093;37.716;-122.060;2022-08-19T02:59:05;12;9;
51052;PMS5003;37093;37.716;-122.060;2022-08-19T03:01:34;11;10;
51052;PMS5003;37093;37.716;-122.060;2022-08-19T03:04:04;11;9;
51052;PMS5003;37093;37.716;-122.060;2022-08-19T03:06:35;8;8;
51052;PMS5003;37093;37.716;-122.060;2022-08-19T03:09:04;12;11;
51052;PMS5003;37093;37.716;-122.060;2022-08-19T03:11:34;10;9;
51052;PMS5003;37093;37.716;-122.060;2022-08-19T03:14:03;11;9;
51052;PMS5003;37093;37.716;-122.060;2022-08-19T03:16:36;11;10;
51052;PMS5003;37093;37.716;-122.060;2022-08-19T03:19:09;10;9;
51052;PMS5003;37093;37.716;-122.060;2022-08-19T03:21:37;11;9;
51052;PMS5003;37093;37.716;-122.060;2022-08-19T03:24:06;9;9;
51052;PMS5003;37093;37.716;-122.060;2022-08-19T03:26:38;10;10;
51052;PMS5003;37093;37.716;-122.060;2022-08-19T03:29:09;12;9;
51052;PMS5003;37093;37.716;-122.060;2022-08-19T03:31:37;8;8;
51052;PMS5003;37093;37.716;-122.060;2022-08-19T03:34:07;8;8;
51052;PMS5003;37093;37.716;-122.060;2022-08-19T03:36:36;16;9;
51052;PMS5003;37093;37.716;-122.060;2022-08-19T03:39:05;12;9;
51052;PMS5003;37093;37.716;-122.060;2022-08-19T03:41:36;12;8;
51052;PMS5003;37093;37.716;-122.060;2022-08-19T03:44:06;8;7;
51052;PMS5003;37093;37.716;-122.060;2022-08-19T03:46:34;9;9;
51052;PMS5003;37093;37.716;-122.060;2022-08-19T03:49:03;10;9;
51052;PMS5003;37093;37.716;-122.060;2022-08-19T03:51:34;10;9;
51052;PMS5003;37093;37.716;-122.060;2022-08-19T03:54:05;10;8;
51052;PMS5003;37093;37.716;-122.060;2022-08-19T03:56:37;15;9;
51052;PMS5003;37093;37.716;-122.060;2022-08-19T03:59:07;9;7;
51052;PMS5003;37093;37.716;-122.060;2022-08-19T04:01:38;9;8;
51052;PMS5003;37093;37.716;-122.060;2022-08-19T04:04:06;8;8;
51052;PMS5003;37093;37.716;-122.060;2022-08-19T04:06:36;11;10;
51052;PMS5003;37093;37.716;-122.060;2022-08-19T04:09:06;12;8;
51052;PMS5003;37093;37.716;-122.060;2022-08-19T04:11:38;8;8;
51052;PMS5003;37093;37.716;-122.060;2022-08-19T04:14:08;8;8;
51052;PMS5003;37093;37.716;-122.060;2022-08-19T04:16:38;8;8;
51052;PMS5003;37093;37.716;-122.060;2022-08-19T04:19:06;10;7;
51052;PMS5003;37093;37.716;-122.060;2022-08-19T04:21:35;9;9;
51052;PMS5003;37093;37.716;-122.060;2022-08-19T04:24:03;9;7;
51052;PMS5003;37093;37.716;-122.060;2022-08-19T04:26:34;14;10;
51052;PMS5003;37093;37.716;-122.060;2022-08-19T04:29:05;10;7;
51052;PMS5003;37093;37.716;-122.060;2022-08-19T04:31:36;11;10;
51052;PMS5003;37093;37.716;-122.060;2022-08-19T04:34:06;17;12;
51052;PMS5003;37093;37.716;-122.060;2022-08-19T04:36:37;11;11;
51052;PMS5003;37093;37.716;-122.060;2022-08-19T04:39:08;9;7;
51052;PMS5003;37093;37.716;-122.060;2022-08-19T04:41:38;11;10;
51052;PMS5003;37093;37.716;-122.060;2022-08-19T04:44:06;11;11;
51052;PMS5003;37093;37.716;-122.060;2022-08-19T04:46:36;10;8;
51052;PMS5003;37093;37.716;-122.060;2022-08-19T04:49:05;10;9;
51052;PMS5003;37093;37.716;-122.060;2022-08-19T04:51:35;10;10;
51052;PMS5003;37093;37.716;-122.060;2022-08-19T04:54:03;10;9;
51052;PMS5003;37093;37.716;-122.060;2022-08-19T04:56:32;19;15;
51052;PMS5003;37093;37.716;-122.060;2022-08-19T04:59:00;14;10;
51052;PMS5003;37093;37.716;-122.060;2022-08-19T05:01:28;13;10;
51052;PMS5003;37093;37.716;-122.060;2022-08-19T05:03:59;11;10;
51052;PMS5003;37093;37.716;-122.060;2022-08-19T05:06:30;12;9;
51052;PMS5003;37093;37.716;-122.060;2022-08-19T05:08:59;11;11;
51052;PMS5003;37093;37.716;-122.060;2022-08-19T05:11:29;17;14;
51052;PMS5003;37093;37.716;-122.060;2022-08-19T05:14:00;17;13;
51052;PMS5003;37093;37.716;-122.060;2022-08-19T05:16:28;10;10;
51052;PMS5003;37093;37.716;-122.060;2022-08-19T05:18:56;14;11;
51052;PMS5003;37093;37.716;-122.060;2022-08-19T05:21:25;13;11;
51052;PMS5003;37093;37.716;-122.060;2022-08-19T05:23:54;14;13;
51052;PMS5003;37093;37.716;-122.060;2022-08-19T05:26:22;16;12;
51052;PMS5003;37093;37.716;-122.060;2022-08-19T05:28:50;21;16;
51052;PMS5003;37093;37.716;-122.060;2022-08-19T05:31:19;16;15;
51052;PMS5003;37093;37.716;-122.060;2022-08-19T05:33:48;10;10;
51052;PMS5003;37093;37.716;-122.060;2022-08-19T05:36:16;17;14;
51052;PMS5003;37093;37.716;-122.060;2022-08-19T05:38:44;14;14;
51052;PMS5003;37093;37.716;-122.060;2022-08-19T05:41:13;20;14;
51052;PMS5003;37093;37.716;-122.060;2022-08-19T05:43:42;13;10;
51052;PMS5003;37093;37.716;-122.060;2022-08-19T05:46:15;17;14;
51052;PMS5003;37093;37.716;-122.060;2022-08-19T05:48:45;17;16;
51052;PMS5003;37093;37.716;-122.060;2022-08-19T05:51:14;19;14;
51052;PMS5003;37093;37.716;-122.060;2022-08-19T05:53:43;19;16;
51052;PMS5003;37093;37.716;-122.060;2022-08-19T05:56:12;18;17;
51052;PMS5003;37093;37.716;-122.060;2022-08-19T05:58:43;16;14;
51052;PMS5003;37093;37.716;-122.060;2022-08-19T06:01:13;17;15;
51052;PMS5003;37093;37.716;-122.060;2022-08-19T06:03:43;15;15;
51052;PMS5003;37093;37.716;-122.060;2022-08-19T06:06:13;15;12;
51052;PMS5003;37093;37.716;-122.060;2022-08-19T06:08:43;16;13;
51052;PMS5003;37093;37.716;-122.060;2022-08-19T06:11:12;16;15;
51052;PMS5003;37093;37.716;-122.060;2022-08-19T06:13:44;13;10;
51052;PMS5003;37093;37.716;-122.060;2022-08-19T06:16:13;12;11;
51052;PMS5003;37093;37.716;-122.060;2022-08-19T06:18:42;16;14;
51052;PMS5003;37093;37.716;-122.060;2022-08-19T06:21:10;12;11;
51052;PMS5003;37093;37.716;-122.060;2022-08-19T06:23:39;15;11;
51052;PMS5003;37093;37.716;-122.060;2022-08-19T06:26:11;10;9;
51052;PMS5003;37093;37.716;-122.060;2022-08-19T06:28:39;9;8;
51052;PMS5003;37093;37.716;-122.060;2022-08-19T06:31:08;7;7;
51052;PMS5003;37093;37.716;-122.060;2022-08-19T06:33:37;8;8;
51052;PMS5003;37093;37.716;-122.060;2022-08-19T06:36:06;7;7;
51052;PMS5003;37093;37.716;-122.060;2022-08-19T06:38:43;8;8;
51052;PMS5003;37093;37.716;-122.060;2022-08-19T06:41:11;7;5;
51052;PMS5003;37093;37.716;-122.060;2022-08-19T06:43:40;9;6;
51052;PMS5003;37093;37.716;-122.060;2022-08-19T06:46:10;7;7;
51052;PMS5003;37093;37.716;-122.060;2022-08-19T06:48:39;7;6;
51052;PMS5003;37093;37.716;-122.060;2022-08-19T06:51:07;5;5;
51052;PMS5003;37093;37.716;-122.060;2022-08-19T06:53:36;5;5;
51052;PMS5003;37093;37.716;-122.060;2022-08-19T06:56:05;5;4;
51052;PMS5003;37093;37.716;-122.060;2022-08-19T06:58:33;5;5;
51052;PMS5003;37093;37.716;-122.060;2022-08-19T07:01:12;6;6;
51052;PMS5003;37093;37.716;-122.060;2022-08-19T07:03:42;4;4;
51052;PMS5003;37093;37.716;-122.060;2022-08-19T07:06:12;4;4;
51052;PMS5003;37093;37.716;-122.060;2022-08-19T07:08:41;5;3;
51052;PMS5003;37093;37.716;-122.060;2022-08-19T07:11:11;4;4;
51052;PMS5003;37093;37.716;-122.060;2022-08-19T07:13:43;4;4;
51052;PMS5003;37093;37.716;-122.060;2022-08-19T07:16:12;2;2;
51052;PMS5003;37093;37.716;-122.060;2022-08-19T07:18:42;4;4;
51052;PMS5003;37093;37.716;-122.060;2022-08-19T07:21:12;3;2;
51052;PMS5003;37093;37.716;-122.060;2022-08-19T07:23:42;5;3;
51052;PMS5003;37093;37.716;-122.060;2022-08-19T07:26:12;6;5;
51052;PMS5003;37093;37.716;-122.060;2022-08-19T07:28:42;4;4;
51052;PMS5003;37093;37.716;-122.060;2022-08-19T07:31:11;4;3;
51052;PMS5003;37093;37.716;-122.060;2022-08-19T07:33:41;4;4;
51052;PMS5003;37093;37.716;-122.060;2022-08-19T07:36:11;6;5;
51052;PMS5003;37093;37.716;-122.060;2022-08-19T07:38:42;4;4;
51052;PMS5003;37093;37.716;-122.060;2022-08-19T07:41:13;6;5;
51052;PMS5003;37093;37.716;-122.060;2022-08-19T07:43:42;3;3;
51052;PMS5003;37093;37.716;-122.060;2022-08-19T07:46:11;5;3;
51052;PMS5003;37093;37.716;-122.060;2022-08-19T07:48:41;6;5;
51052;PMS5003;37093;37.716;-122.060;2022-08-19T07:51:10;5;5;
51052;PMS5003;37093;37.716;-122.060;2022-08-19T07:53:42;4;4;
51052;PMS5003;37093;37.716;-122.060;2022-08-19T07:56:12;4;4;
51052;PMS5003;37093;37.716;-122.060;2022-08-19T07:58:41;4;4;
51052;PMS5003;37093;37.716;-122.060;2022-08-19T08:01:13;6;5;
51052;PMS5003;37093;37.716;-122.060;2022-08-19T08:03:43;5;5;
51052;PMS5003;37093;37.716;-122.060;2022-08-19T08:06:12;7;6;
51052;PMS5003;37093;37.716;-122.060;2022-08-19T08:08:42;7;6;
51052;PMS5003;37093;37.716;-122.060;2022-08-19T08:11:10;6;6;
51052;PMS5003;37093;37.716;-122.060;2022-08-19T08:13:39;8;7;
51052;PMS5003;37093;37.716;-122.060;2022-08-19T08:16:08;8;8;
51052;PMS5003;37093;37.716;-122.060;2022-08-19T08:18:36;7;7;
51052;PMS5003;37093;37.716;-122.060;2022-08-19T08:21:05;6;6;
51052;PMS5003;37093;37.716;-122.060;2022-08-19T08:23:33;8;7;
51052;PMS5003;37093;37.716;-122.060;2022-08-19T08:26:02;8;7;
51052;PMS5003;37093;37.716;-122.060;2022-08-19T08:28:30;8;7;
51052;PMS5003;37093;37.716;-122.060;2022-08-19T08:30:59;6;6;
51052;PMS5003;37093;37.716;-122.060;2022-08-19T08:33:28;5;5;
51052;PMS5003;37093;37.716;-122.060;2022-08-19T08:35:57;6;5;
51052;PMS5003;37093;37.716;-122.060;2022-08-19T08:38:25;6;6;
51052;PMS5003;37093;37.716;-122.060;2022-08-19T08:40:56;5;3;
51052;PMS5003;37093;37.716;-122.060;2022-08-19T08:43:32;4;3;
51052;PMS5003;37093;37.716;-122.060;2022-08-19T08:46:05;3;3;
51052;PMS5003;37093;37.716;-122.060;2022-08-19T08:48:37;3;3;
51052;PMS5003;37093;37.716;-122.060;2022-08-19T08:51:12;3;3;
51052;PMS5003;37093;37.716;-122.060;2022-08-19T08:53:46;4;3;
51052;PMS5003;37093;37.716;-122.060;2022-08-19T08:56:18;2;2;
51052;PMS5003;37093;37.716;-122.060;2022-08-19T08:58:50;3;2;
51052;PMS5003;37093;37.716;-122.060;2022-08-19T09:01:24;3;3;
51052;PMS5003;37093;37.716;-122.060;2022-08-19T09:03:53;3;3;
51052;PMS5003;37093;37.716;-122.060;2022-08-19T09:06:23;4;3;
51052;PMS5003;37093;37.716;-122.060;2022-08-19T09:08:59;3;3;
51052;PMS5003;37093;37.716;-122.060;2022-08-19T09:11:36;4;4;
51052;PMS5003;37093;37.716;-122.060;2022-08-19T09:14:20;3;3;
51052;PMS5003;37093;37.716;-122.060;2022-08-19T09:16:59;3;3;
51052;PMS5003;37093;37.716;-122.060;2022-08-19T09:19:27;4;4;
51052;PMS5003;37093;37.716;-122.060;2022-08-19T09:21:56;5;4;
51052;PMS5003;37093;37.716;-122.060;2022-08-19T09:24:25;2;2;
51052;PMS5003;37093;37.716;-122.060;2022-08-19T09:26:53;4;4;
51052;PMS5003;37093;37.716;-122.060;2022-08-19T09:29:22;3;3;
51052;PMS5003;37093;37.716;-122.060;2022-08-19T09:31:51;5;4;
51052;PMS5003;37093;37.716;-122.060;2022-08-19T09:34:19;4;3;
51052;PMS5003;37093;37.716;-122.060;2022-08-19T09:36:49;4;2;
51052;PMS5003;37093;37.716;-122.060;2022-08-19T09:39:18;3;3;
51052;PMS5003;37093;37.716;-122.060;2022-08-19T09:41:46;3;3;
51052;PMS5003;37093;37.716;-122.060;2022-08-19T09:44:15;3;3;
51052;PMS5003;37093;37.716;-122.060;2022-08-19T09:46:43;6;5;
51052;PMS5003;37093;37.716;-122.060;2022-08-19T09:49:12;3;2;
51052;PMS5003;37093;37.716;-122.060;2022-08-19T09:51:41;3;3;
51052;PMS5003;37093;37.716;-122.060;2022-08-19T09:54:10;3;3;
51052;PMS5003;37093;37.716;-122.060;2022-08-19T09:56:38;4;4;
51052;PMS5003;37093;37.716;-122.060;2022-08-19T09:59:07;5;4;
51052;PMS5003;37093;37.716;-122.060;2022-08-19T10:01:35;6;5;
51052;PMS5003;37093;37.716;-122.060;2022-08-19T10:04:04;4;3;
51052;PMS5003;37093;37.716;-122.060;2022-08-19T10:06:32;5;5;
51052;PMS5003;37093;37.716;-122.060;2022-08-19T10:09:02;5;4;
51052;PMS5003;37093;37.716;-122.060;2022-08-19T10:11:32;5;5;
51052;PMS5003;37093;37.716;-122.060;2022-08-19T10:14:01;3;3;
51052;PMS5003;37093;37.716;-122.060;2022-08-19T10:16:29;3;3;
51052;PMS5003;37093;37.716;-122.060;2022-08-19T10:18:58;8;6;
51052;PMS5003;37093;37.716;-122.060;2022-08-19T10:21:27;4;4;
51052;PMS5003;37093;37.716;-122.060;2022-08-19T10:23:58;4;4;
51052;PMS5003;37093;37.716;-122.060;2022-08-19T10:26:28;5;5;
51052;PMS5003;37093;37.716;-122.060;2022-08-19T10:28:58;7;7;
51052;PMS5003;37093;37.716;-122.060;2022-08-19T10:31:27;11;6;
51052;PMS5003;37093;37.716;-122.060;2022-08-19T10:33:57;7;6;
51052;PMS5003;37093;37.716;-122.060;2022-08-19T10:36:27;5;5;
51052;PMS5003;37093;37.716;-122.060;2022-08-19T10:38:57;5;5;
51052;PMS5003;37093;37.716;-122.060;2022-08-19T10:41:28;6;5;
51052;PMS5003;37093;37.716;-122.060;2022-08-19T10:44:00;7;5;
51052;PMS5003;37093;37.716;-122.060;2022-08-19T10:46:31;7;7;
51052;PMS5003;37093;37.716;-122.060;2022-08-19T10:49:03;7;6;
51052;PMS5003;37093;37.716;-122.060;2022-08-19T10:51:32;7;6;
51052;PMS5003;37093;37.716;-122.060;2022-08-19T10:54:01;5;4;
51052;PMS5003;37093;37.716;-122.060;2022-08-19T10:56:31;7;7;
51052;PMS5003;37093;37.716;-122.060;2022-08-19T10:59:00;5;4;
51052;PMS5003;37093;37.716;-122.060;2022-08-19T11:01:29;3;3;
51052;PMS5003;37093;37.716;-122.060;2022-08-19T11:03:59;4;3;
51052;PMS5003;37093;37.716;-122.060;2022-08-19T11:06:28;3;3;
51052;PMS5003;37093;37.716;-122.060;2022-08-19T11:08:58;3;3;
51052;PMS5003;37093;37.716;-122.060;2022-08-19T11:11:27;4;3;
51052;PMS5003;37093;37.716;-122.060;2022-08-19T11:13:55;5;4;
51052;PMS5003;37093;37.716;-122.060;2022-08-19T11:16:25;3;2;
51052;PMS5003;37093;37.716;-122.060;2022-08-19T11:18:54;5;5;
51052;PMS5003;37093;37.716;-122.060;2022-08-19T11:21:27;4;4;
51052;PMS5003;37093;37.716;-122.060;2022-08-19T11:23:57;4;3;
51052;PMS5003;37093;37.716;-122.060;2022-08-19T11:26:29;5;5;
51052;PMS5003;37093;37.716;-122.060;2022-08-19T11:28:58;8;5;
51052;PMS5003;37093;37.716;-122.060;2022-08-19T11:31:28;6;5;
51052;PMS5003;37093;37.716;-122.060;2022-08-19T11:33:58;6;5;
51052;PMS5003;37093;37.716;-122.060;2022-08-19T11:36:29;5;3;
51052;PMS5003;37093;37.716;-122.060;2022-08-19T11:38:58;5;4;
51052;PMS5003;37093;37.716;-122.060;2022-08-19T11:41:27;3;3;
51052;PMS5003;37093;37.716;-122.060;2022-08-19T11:43:56;4;4;
51052;PMS5003;37093;37.716;-122.060;2022-08-19T11:46:25;6;5;
51052;PMS5003;37093;37.716;-122.060;2022-08-19T11:48:54;6;6;
51052;PMS5003;37093;37.716;-122.060;2022-08-19T11:51:23;8;4;
51052;PMS5003;37093;37.716;-122.060;2022-08-19T11:53:52;5;5;
51052;PMS5003;37093;37.716;-122.060;2022-08-19T11:56:22;4;3;
51052;PMS5003;37093;37.716;-122.060;2022-08-19T11:58:51;8;5;
51052;PMS5003;37093;37.716;-122.060;2022-08-19T12:01:20;7;6;
51052;PMS5003;37093;37.716;-122.060;2022-08-19T12:03:50;3;3;
51052;PMS5003;37093;37.716;-122.060;2022-08-19T12:06:22;2;2;
51052;PMS5003;37093;37.716;-122.060;2022-08-19T12:08:52;3;3;
51052;PMS5003;37093;37.716;-122.060;2022-08-19T12:11:21;5;5;
51052;PMS5003;37093;37.716;-122.060;2022-08-19T12:13:50;4;4;
51052;PMS5003;37093;37.716;-122.060;2022-08-19T12:16:20;5;3;
51052;PMS5003;37093;37.716;-122.060;2022-08-19T12:18:49;2;2;
51052;PMS5003;37093;37.716;-122.060;2022-08-19T12:21:19;9;6;
51052;PMS5003;37093;37.716;-122.060;2022-08-19T12:23:50;6;6;
51052;PMS5003;37093;37.716;-122.060;2022-08-19T12:26:18;5;5;
51052;PMS5003;37093;37.716;-122.060;2022-08-19T12:28:47;4;4;
51052;PMS5003;37093;37.716;-122.060;2022-08-19T12:31:16;5;5;
51052;PMS5003;37093;37.716;-122.060;2022-08-19T12:33:44;6;4;
51052;PMS5003;37093;37.716;-122.060;2022-08-19T12:36:15;7;4;
51052;PMS5003;37093;37.716;-122.060;2022-08-19T12:38:44;5;3;
51052;PMS5003;37093;37.716;-122.060;2022-08-19T12:41:14;8;5;
51052;PMS5003;37093;37.716;-122.060;2022-08-19T12:43:43;8;5;
51052;PMS5003;37093;37.716;-122.060;2022-08-19T12:46:12;6;5;
51052;PMS5003;37093;37.716;-122.060;2022-08-19T12:48:40;4;4;
51052;PMS5003;37093;37.716;-122.060;2022-08-19T12:51:10;5;4;
51052;PMS5003;37093;37.716;-122.060;2022-08-19T12:53:41;3;3;
51052;PMS5003;37093;37.716;-122.060;2022-08-19T12:56:10;4;3;
51052;PMS5003;37093;37.716;-122.060;2022-08-19T12:58:39;7;5;
51052;PMS5003;37093;37.716;-122.060;2022-08-19T13:01:08;2;2;
51052;PMS5003;37093;37.716;-122.060;2022-08-19T13:03:38;5;4;
51052;PMS5003;37093;37.716;-122.060;2022-08-19T13:06:06;5;3;
51052;PMS5003;37093;37.716;-122.060;2022-08-19T13:08:36;3;3;
51052;PMS5003;37093;37.716;-122.060;2022-08-19T13:11:10;5;4;
51052;PMS5003;37093;37.716;-122.060;2022-08-19T13:13:41;3;3;
51052;PMS5003;37093;37.716;-122.060;2022-08-19T13:16:11;4;4;
51052;PMS5003;37093;37.716;-122.060;2022-08-19T13:18:41;5;3;
51052;PMS5003;37093;37.716;-122.060;2022-08-19T13:21:11;5;3;
51052;PMS5003;37093;37.716;-122.060;2022-08-19T13:23:40;9;5;
51052;PMS5003;37093;37.716;-122.060;2022-08-19T13:26:10;3;2;
51052;PMS5003;37093;37.716;-122.060;2022-08-19T13:28:41;5;4;
51052;PMS5003;37093;37.716;-122.060;2022-08-19T13:31:10;4;4;
51052;PMS5003;37093;37.716;-122.060;2022-08-19T13:33:41;2;2;
51052;PMS5003;37093;37.716;-122.060;2022-08-19T13:36:09;4;4;
51052;PMS5003;37093;37.716;-122.060;2022-08-19T13:38:38;8;5;
51052;PMS5003;37093;37.716;-122.060;2022-08-19T13:41:06;5;5;
51052;PMS5003;37093;37.716;-122.060;2022-08-19T13:43:35;2;2;
51052;PMS5003;37093;37.716;-122.060;2022-08-19T13:46:07;5;4;
51052;PMS5003;37093;37.716;-122.060;2022-08-19T13:48:37;7;6;
51052;PMS5003;37093;37.716;-122.060;2022-08-19T13:51:06;7;5;
51052;PMS5003;37093;37.716;-122.060;2022-08-19T13:53:35;9;7;
51052;PMS5003;37093;37.716;-122.060;2022-08-19T13:56:05;8;6;
51052;PMS5003;37093;37.716;-122.060;2022-08-19T13:58:33;12;6;
51052;PMS5003;37093;37.716;-122.060;2022-08-19T14:01:02;3;3;
51052;PMS5003;37093;37.716;-122.060;2022-08-19T14:03:32;4;3;
51052;PMS5003;37093;37.716;-122.060;2022-08-19T14:06:01;6;5;
51052;PMS5003;37093;37.716;-122.060;2022-08-19T14:08:29;6;4;
51052;PMS5003;37093;37.716;-122.060;2022-08-19T14:10:58;7;3;
51052;PMS5003;37093;37.716;-122.060;2022-08-19T14:13:26;6;6;
51052;PMS5003;37093;37.716;-122.060;2022-08-19T14:15:54;5;5;
51052;PMS5003;37093;37.716;-122.060;2022-08-19T14:18:23;7;6;
51052;PMS5003;37093;37.716;-122.060;2022-08-19T14:20:52;7;7;
51052;PMS5003;37093;37.716;-122.060;2022-08-19T14:23:20;6;4;
51052;PMS5003;37093;37.716;-122.060;2022-08-19T14:25:49;4;4;
51052;PMS5003;37093;37.716;-122.060;2022-08-19T14:28:17;6;6;
51052;PMS5003;37093;37.716;-122.060;2022-08-19T14:30:46;5;3;
51052;PMS5003;37093;37.716;-122.060;2022-08-19T14:33:14;5;5;
51052;PMS5003;37093;37.716;-122.060;2022-08-19T14:35:43;6;5;
51052;PMS5003;37093;37.716;-122.060;2022-08-19T14:38:15;4;4;
51052;PMS5003;37093;37.716;-122.060;2022-08-19T14:40:45;7;5;
51052;PMS5003;37093;37.716;-122.060;2022-08-19T14:43:13;5;5;
51052;PMS5003;37093;37.716;-122.060;2022-08-19T14:45:44;4;4;
51052;PMS5003;37093;37.716;-122.060;2022-08-19T14:48:12;6;5;
51052;PMS5003;37093;37.716;-122.060;2022-08-19T14:50:41;4;4;
51052;PMS5003;37093;37.716;-122.060;2022-08-19T14:53:09;6;5;
51052;PMS5003;37093;37.716;-122.060;2022-08-19T14:55:40;4;4;
51052;PMS5003;37093;37.716;-122.060;2022-08-19T14:58:10;6;5;
51052;PMS5003;37093;37.716;-122.060;2022-08-19T15:00:39;10;6;
51052;PMS5003;37093;37.716;-122.060;2022-08-19T15:03:07;5;5;
51052;PMS5003;37093;37.716;-122.060;2022-08-19T15:05:36;7;6;
51052;PMS5003;37093;37.716;-122.060;2022-08-19T15:08:05;3;3;
51052;PMS5003;37093;37.716;-122.060;2022-08-19T15:10:33;5;5;
51052;PMS5003;37093;37.716;-122.060;2022-08-19T15:13:02;6;4;
51052;PMS5003;37093;37.716;-122.060;2022-08-19T15:15:30;7;6;
51052;PMS5003;37093;37.716;-122.060;2022-08-19T15:17:59;6;6;
51052;PMS5003;37093;37.716;-122.060;2022-08-19T15:20:28;5;5;
51052;PMS5003;37093;37.716;-122.060;2022-08-19T15:22:56;3;3;
51052;PMS5003;37093;37.716;-122.060;2022-08-19T15:25:24;5;5;
51052;PMS5003;37093;37.716;-122.060;2022-08-19T15:27:54;5;5;
51052;PMS5003;37093;37.716;-122.060;2022-08-19T15:30:23;9;6;
51052;PMS5003;37093;37.716;-122.060;2022-08-19T15:32:52;9;7;
51052;PMS5003;37093;37.716;-122.060;2022-08-19T15:35:21;8;5;
51052;PMS5003;37093;37.716;-122.060;2022-08-19T15:37:51;7;5;
51052;PMS5003;37093;37.716;-122.060;2022-08-19T15:40:20;5;5;
51052;PMS5003;37093;37.716;-122.060;2022-08-19T15:42:50;6;4;
51052;PMS5003;37093;37.716;-122.060;2022-08-19T15:45:20;6;6;
51052;PMS5003;37093;37.716;-122.060;2022-08-19T15:47:49;9;6;
51052;PMS5003;37093;37.716;-122.060;2022-08-19T15:50:19;6;5;
51052;PMS5003;37093;37.716;-122.060;2022-08-19T15:52:48;6;5;
51052;PMS5003;37093;37.716;-122.060;2022-08-19T15:55:19;7;6;
51052;PMS5003;37093;37.716;-122.060;2022-08-19T15:57:49;7;7;
51052;PMS5003;37093;37.716;-122.060;2022-08-19T16:00:17;4;4;
51052;PMS5003;37093;37.716;-122.060;2022-08-19T16:02:46;5;4;
51052;PMS5003;37093;37.716;-122.060;2022-08-19T16:05:16;8;7;
51052;PMS5003;37093;37.716;-122.060;2022-08-19T16:07:47;3;3;
51052;PMS5003;37093;37.716;-122.060;2022-08-19T16:10:16;8;5;
51052;PMS5003;37093;37.716;-122.060;2022-08-19T16:12:45;5;4;